KELZ

Wellsville Municipal Arpt,tarantine Field Airport

Wellsville, New York, USA
METAR KELZ 201556Z AUTO 15006G14KT 10SM OVC019 21/17 A3017 RMK AO2 SLP210 T02060167
Observed Flight Rules
Aug-20 @ 15:56 UTC (29 minutes ago) Marginal Visual Flight Rules
Wind Visibility Clouds
150° at 6 knots
 Gusting to 14 knots
10 miles
  • Overcast at 1,900' AGL
Temperatures Readings
Current 21°C / 70°F
Dewpoint 17°C / 63°F
Humidity 78%
Altimeter 30.17" Hg
Pressure 1021 hPa
Elevation 646
METAR KELZ 201556Z AUTO 15006G14KT 10SM OVC019 21/17 A3017 RMK AO2 SLP210 T02060167
Observed Flight Rules
Aug-20 @ 15:56 UTC
(29 minutes ago)
MVFR
Wind Visibility
150° at 6 knots
 Gusting to 14 knots
10 miles
Clouds
  • Overcast at 1,900' AGL
Temperature Dewpoint
21°C / 70°F 17°C / 63°F
Humidity Altimeter Pressure
78% 30.17" Hg 1021 hPa